Merle K (Mudhole) Smith Airport Cordova US
ICAO: PACV
IATA:
Category: Medium
Scheduled Services:

Elevation: 54 ft
TransAlt. 18000 ft.

Airport Communications:
ANCHORAGE APP/DEP:133.6
ASOS:134.8
CTAF:123.6
JUNEAU RDO:122.2

PACV Zoom In..

If you have problems with the map follow the link
https://www.worldairports.se/pages/airport.php?
ICAO=PACV

Runways:

(A) RW 09 length 7500 ft width 150 ft
---- / hdg 95

(B) RW 16 length 1899 ft width 30 ft
---- / hdg 162

(C) RW 27 length 7500 ft width 150 ft
ILS 110.70 / hdg 275

(D) RW 34 length 1899 ft width 30 ft
---- / hdg 342

Location; PACV
Day. 22 / Time. 15.53 Zulu
* Altimeter: 29.90
* Temperature: -02° c. -28.4°f.
* Wind from: VRB° Speed 03 kn.
Dewpoint: -14° c.
Visibility: 10 Statute Miles.
Clouds: Clear (automated report).

PACV 221553Z VRB03KT 10SM CLR M02/M14 A2990 RMK AO2 SLP127 T10171144


Wind From VRB°
Speed 03 kn.

 
 
jpsmedia.com for Web Design worldairports.se 2019   terms of use